createdAt,value
2017-01-13T00:00:29.764Z,980.01
2017-01-13T00:01:10.339Z,980.04
2017-01-13T00:01:50.753Z,980.07
2017-01-13T00:02:31.273Z,980.02
2017-01-13T00:03:11.775Z,980.09
2017-01-13T00:03:52.281Z,980.12
2017-01-13T00:04:32.735Z,980.11
2017-01-13T00:05:14.208Z,980.22
2017-01-13T00:05:54.727Z,980.22
2017-01-13T00:06:35.273Z,980.29
2017-01-13T00:07:15.880Z,980.3
2017-01-13T00:07:56.479Z,980.24
2017-01-13T00:08:40.828Z,980.24
2017-01-13T00:09:21.354Z,980.25
2017-01-13T00:10:01.854Z,980.32
2017-01-13T00:10:42.354Z,980.44
2017-01-13T00:11:22.889Z,980.22
2017-01-13T00:12:03.311Z,980.24
2017-01-13T00:12:43.789Z,980.48
2017-01-13T00:13:24.283Z,980.49
2017-01-13T00:14:04.763Z,980.4
2017-01-13T00:14:45.313Z,980.08
2017-01-13T00:15:25.764Z,980.29
2017-01-13T00:16:06.289Z,980.5
2017-01-13T00:16:46.791Z,980.39
2017-01-13T00:17:27.254Z,980.42
2017-01-13T00:18:07.850Z,980.44
2017-01-13T00:18:48.407Z,980.48
2017-01-13T00:19:28.879Z,980.49
2017-01-13T00:20:09.339Z,980.53
2017-01-13T00:20:49.927Z,980.6
2017-01-13T00:21:30.436Z,980.61
2017-01-13T00:22:10.922Z,980.55
2017-01-13T00:22:51.428Z,980.69
2017-01-13T00:23:31.871Z,980.5
2017-01-13T00:24:12.288Z,980.55
2017-01-13T00:24:52.767Z,980.64
2017-01-13T00:25:33.281Z,980.35
2017-01-13T00:26:13.792Z,980.61
2017-01-13T00:26:54.316Z,980.49
2017-01-13T00:27:34.739Z,980.48
2017-01-13T00:28:15.264Z,980.42
2017-01-13T00:28:55.786Z,980.65
2017-01-13T00:29:36.260Z,980.55
2017-01-13T00:30:16.974Z,980.53
2017-01-13T00:30:57.550Z,980.6
2017-01-13T00:31:38.033Z,980.46
2017-01-13T00:32:18.569Z,980.52
2017-01-13T00:32:59.006Z,980.58
2017-01-13T00:33:39.517Z,980.48
2017-01-13T00:34:19.958Z,980.37
2017-01-13T00:35:00.535Z,980.45
2017-01-13T00:35:40.982Z,980.58
2017-01-13T00:36:21.431Z,980.53
2017-01-13T00:37:01.949Z,980.41
2017-01-13T00:37:42.427Z,980.39
2017-01-13T00:38:22.906Z,980.34
2017-01-13T00:39:03.425Z,980.47
2017-01-13T00:39:43.883Z,980.63
2017-01-13T00:40:24.410Z,980.55
2017-01-13T00:41:04.909Z,980.46
2017-01-13T00:41:45.411Z,980.49
2017-01-13T00:42:25.881Z,980.54
2017-01-13T00:43:06.372Z,980.7
2017-01-13T00:43:46.884Z,980.59
2017-01-13T00:44:27.350Z,980.56
2017-01-13T00:45:07.914Z,980.67
2017-01-13T00:45:48.344Z,980.69
2017-01-13T00:46:28.809Z,980.74
2017-01-13T00:47:09.333Z,980.66
2017-01-13T00:47:49.803Z,980.61
2017-01-13T00:48:30.260Z,980.67
2017-01-13T00:49:10.835Z,980.66
2017-01-13T00:49:51.236Z,980.86
2017-01-13T00:50:31.768Z,980.74
2017-01-13T00:51:12.214Z,980.69
2017-01-13T00:51:52.774Z,980.52
2017-01-13T00:52:33.146Z,980.52
2017-01-13T00:53:13.667Z,980.66
2017-01-13T00:53:54.250Z,980.65
2017-01-13T00:54:34.681Z,980.91
2017-01-13T00:55:15.216Z,980.8
2017-01-13T00:55:55.697Z,980.91
2017-01-13T00:56:36.513Z,980.82
2017-01-13T00:57:17.028Z,980.95
2017-01-13T00:57:57.454Z,980.81
2017-01-13T00:58:38.006Z,980.78
2017-01-13T00:59:18.502Z,980.63
2017-01-13T00:59:59.014Z,980.83
2017-01-13T01:00:39.475Z,980.96
2017-01-13T01:01:19.939Z,980.73
2017-01-13T01:02:00.446Z,980.79
2017-01-13T01:02:40.933Z,980.8
2017-01-13T01:03:21.558Z,980.95
2017-01-13T01:04:01.974Z,980.97
2017-01-13T01:04:42.419Z,980.9
2017-01-13T01:05:22.944Z,981
2017-01-13T01:06:03.430Z,981
2017-01-13T01:06:43.927Z,981.09
2017-01-13T01:07:24.368Z,980.91
2017-01-13T01:08:04.878Z,980.83
2017-01-13T01:08:45.390Z,980.81
2017-01-13T01:09:25.867Z,980.91
2017-01-13T01:10:06.396Z,980.96
2017-01-13T01:10:46.896Z,981.06
2017-01-13T01:11:27.318Z,980.9
2017-01-13T01:12:07.852Z,980.96
2017-01-13T01:12:48.292Z,980.91
2017-01-13T01:13:28.923Z,980.88
2017-01-13T01:14:09.383Z,980.78
2017-01-13T01:14:49.974Z,980.84
2017-01-13T01:15:30.382Z,980.77
2017-01-13T01:16:10.904Z,980.89
2017-01-13T01:16:51.403Z,980.94
2017-01-13T01:17:31.936Z,980.68
2017-01-13T01:18:12.406Z,980.81
2017-01-13T01:18:52.899Z,980.89
2017-01-13T01:19:33.446Z,980.94
2017-01-13T01:20:13.861Z,980.67
2017-01-13T01:20:54.379Z,981.02
2017-01-13T01:21:35.216Z,980.91
2017-01-13T01:22:15.685Z,980.82
2017-01-13T01:22:56.157Z,980.97
2017-01-13T01:23:36.653Z,980.91
2017-01-13T01:24:17.123Z,980.96
2017-01-13T01:24:57.629Z,981.15
2017-01-13T01:25:38.144Z,981.14
2017-01-13T01:26:18.672Z,981.01
2017-01-13T01:26:59.104Z,981.14
2017-01-13T01:27:39.667Z,980.95
2017-01-13T01:28:20.158Z,981.09
2017-01-13T01:29:00.710Z,981.28
2017-01-13T01:29:41.224Z,981.13
2017-01-13T01:30:21.704Z,981.12
2017-01-13T01:31:02.131Z,981.23
2017-01-13T01:31:42.667Z,981.25
2017-01-13T01:32:23.114Z,981.3
2017-01-13T01:33:03.656Z,981.25
2017-01-13T01:33:44.137Z,981.31
2017-01-13T01:34:24.617Z,981.31
2017-01-13T01:35:05.126Z,981.04
2017-01-13T01:35:45.589Z,981.19
2017-01-13T01:36:26.061Z,981.22
2017-01-13T01:37:06.573Z,981.64
2017-01-13T01:37:47.046Z,981.27
2017-01-13T01:38:27.511Z,981.23
2017-01-13T01:39:08.106Z,981.18
2017-01-13T01:39:48.545Z,981.15
2017-01-13T01:40:29.073Z,981.3
2017-01-13T01:41:09.878Z,981.4
2017-01-13T01:41:50.370Z,981.53
2017-01-13T01:42:30.874Z,981.43
2017-01-13T01:43:11.365Z,981.43
2017-01-13T01:43:51.840Z,981.32
2017-01-13T01:44:32.333Z,981.26
2017-01-13T01:45:12.784Z,981.33
2017-01-13T01:45:53.315Z,981.46
2017-01-13T01:46:33.832Z,981.61
2017-01-13T01:47:14.355Z,981.6
2017-01-13T01:47:54.848Z,981.59
2017-01-13T01:48:35.312Z,981.71
2017-01-13T01:49:15.828Z,981.77
2017-01-13T01:49:56.304Z,981.74
2017-01-13T01:50:36.814Z,981.68
2017-01-13T01:51:17.300Z,981.88
2017-01-13T01:51:57.792Z,981.91
2017-01-13T01:52:38.283Z,981.79
2017-01-13T01:53:18.854Z,981.89
2017-01-13T01:53:59.307Z,982
2017-01-13T01:54:39.834Z,981.89
2017-01-13T01:55:20.407Z,982.05
2017-01-13T01:56:00.853Z,982.01
2017-01-13T01:56:41.298Z,981.87
2017-01-13T01:57:21.870Z,981.96
2017-01-13T01:58:02.400Z,982.01
2017-01-13T01:58:42.858Z,982.05
2017-01-13T01:59:23.553Z,981.88
2017-01-13T02:00:04.018Z,981.74
2017-01-13T02:00:44.529Z,981.83
2017-01-13T02:01:24.986Z,981.79
2017-01-13T02:02:05.493Z,982.02
2017-01-13T02:02:45.967Z,982.15
2017-01-13T02:03:26.513Z,981.72
2017-01-13T02:04:06.990Z,982.13
2017-01-13T02:04:47.478Z,981.91
2017-01-13T02:05:27.944Z,982.13
2017-01-13T02:06:08.488Z,981.87
2017-01-13T02:06:48.973Z,982.02
2017-01-13T02:07:29.594Z,981.92
2017-01-13T02:08:10.110Z,982.03
2017-01-13T02:08:50.718Z,982.13
2017-01-13T02:09:31.125Z,982
2017-01-13T02:10:11.618Z,982.17
2017-01-13T02:10:52.160Z,982.05
2017-01-13T02:11:32.695Z,982.07
2017-01-13T02:12:13.224Z,982.16
2017-01-13T02:12:53.700Z,982.23
2017-01-13T02:13:34.178Z,982.27
2017-01-13T02:14:14.662Z,982.28
2017-01-13T02:14:55.173Z,982.27
2017-01-13T02:15:35.716Z,982.3
2017-01-13T02:16:16.414Z,982.15
2017-01-13T02:16:56.876Z,982.27
2017-01-13T02:17:37.451Z,982.28
2017-01-13T02:18:17.978Z,982.18
2017-01-13T02:18:58.517Z,982.26
2017-01-13T02:19:38.997Z,982.37
2017-01-13T02:20:19.549Z,982.24
2017-01-13T02:21:00.006Z,982.37
2017-01-13T02:21:40.520Z,982.36
2017-01-13T02:22:21.191Z,982.5
2017-01-13T02:23:01.732Z,982.66
2017-01-13T02:23:42.081Z,982.55
2017-01-13T02:24:22.630Z,982.43
2017-01-13T02:25:03.226Z,982.54
2017-01-13T02:25:43.855Z,982.42
2017-01-13T02:26:24.331Z,982.55
2017-01-13T02:27:04.797Z,982.48
2017-01-13T02:27:45.298Z,982.57
2017-01-13T02:28:25.809Z,982.6
2017-01-13T02:29:06.562Z,982.65
2017-01-13T02:29:46.946Z,982.45
2017-01-13T02:30:27.558Z,982.55
2017-01-13T02:31:08.055Z,982.71
2017-01-13T02:31:48.628Z,982.53
2017-01-13T02:32:29.168Z,982.56
2017-01-13T02:33:09.720Z,982.62
2017-01-13T02:33:50.225Z,982.68
2017-01-13T02:34:30.721Z,982.58
2017-01-13T02:35:11.185Z,982.68
2017-01-13T02:35:51.711Z,982.48
2017-01-13T02:36:32.351Z,982.66
2017-01-13T02:37:12.860Z,982.85
2017-01-13T02:37:53.319Z,982.81
2017-01-13T02:38:34.028Z,982.78
2017-01-13T02:39:14.491Z,982.85
2017-01-13T02:39:54.945Z,982.82
2017-01-13T02:40:35.503Z,982.95
2017-01-13T02:41:16.020Z,982.88
2017-01-13T02:41:57.604Z,983.02
2017-01-13T02:42:37.938Z,982.99
2017-01-13T02:43:18.380Z,983.04
2017-01-13T02:43:58.883Z,983.05
2017-01-13T02:44:39.333Z,983.09
2017-01-13T02:45:19.870Z,983.06
2017-01-13T02:46:00.404Z,983.1
2017-01-13T02:46:41.166Z,983.47
2017-01-13T02:47:21.633Z,983.09
2017-01-13T02:48:02.156Z,983.24
2017-01-13T02:48:42.638Z,983.21
2017-01-13T02:49:23.227Z,983.11
2017-01-13T02:50:03.658Z,983.28
2017-01-13T02:50:44.508Z,983.33
2017-01-13T02:51:24.822Z,983.34
2017-01-13T02:52:05.364Z,983.34
2017-01-13T02:52:45.824Z,983.46
2017-01-13T02:53:26.318Z,983.39
2017-01-13T02:54:06.859Z,983.38
2017-01-13T02:54:47.314Z,983.32
2017-01-13T02:55:27.773Z,983.39
2017-01-13T02:56:08.316Z,983.44
2017-01-13T02:56:48.807Z,983.51
2017-01-13T02:57:29.452Z,983.59
2017-01-13T02:58:09.953Z,983.6
2017-01-13T02:58:50.385Z,983.55
2017-01-13T02:59:30.962Z,983.48
2017-01-13T03:00:11.419Z,983.63
2017-01-13T03:00:52.200Z,983.66
2017-01-13T03:01:32.638Z,983.77
2017-01-13T03:02:13.230Z,983.57
2017-01-13T03:02:53.998Z,983.59
2017-01-13T03:03:36.677Z,983.84
2017-01-13T03:04:17.540Z,983.73
2017-01-13T03:04:58.534Z,983.66
2017-01-13T03:05:39.577Z,983.83
2017-01-13T03:06:20.126Z,983.86
2017-01-13T03:07:01.172Z,983.82
2017-01-13T03:07:41.017Z,983.76
2017-01-13T03:08:21.548Z,983.54
2017-01-13T03:09:02.140Z,984.13
2017-01-13T03:09:42.609Z,984.01
2017-01-13T03:10:23.051Z,984.14
2017-01-13T03:11:03.591Z,984.2
2017-01-13T03:11:44.046Z,983.92
2017-01-13T03:12:24.556Z,984.06
2017-01-13T03:13:05.030Z,984.18
2017-01-13T03:13:45.470Z,984.32
2017-01-13T03:14:25.985Z,984.09
2017-01-13T03:15:06.432Z,984.48
2017-01-13T03:15:47.103Z,984.38
2017-01-13T03:16:27.595Z,984.15
2017-01-13T03:17:08.057Z,984.34
2017-01-13T03:17:48.593Z,984.14
2017-01-13T03:18:29.109Z,983.94
2017-01-13T03:19:09.665Z,984.3
2017-01-13T03:19:50.132Z,984.46
2017-01-13T03:20:30.545Z,984.12
2017-01-13T03:21:11.078Z,984.42
2017-01-13T03:21:51.618Z,984.37
2017-01-13T03:22:32.079Z,984.43
2017-01-13T03:23:12.564Z,984.5
2017-01-13T03:23:53.166Z,984.45
2017-01-13T03:24:33.678Z,984.53
2017-01-13T03:25:14.163Z,984.43
2017-01-13T03:25:54.627Z,984.61
2017-01-13T03:26:35.090Z,984.51
2017-01-13T03:27:15.547Z,984.58
2017-01-13T03:27:56.118Z,984.57
2017-01-13T03:28:36.707Z,984.77
2017-01-13T03:29:17.412Z,984.62
2017-01-13T03:29:58.206Z,984.07
2017-01-13T03:30:39.054Z,984.56
2017-01-13T03:31:19.608Z,984.68
2017-01-13T03:32:00.230Z,984.67
2017-01-13T03:32:40.969Z,984.74
2017-01-13T03:33:21.333Z,984.69
2017-01-13T03:34:01.731Z,984.71
2017-01-13T03:34:42.258Z,984.75
2017-01-13T03:35:23.122Z,984.58
2017-01-13T03:36:03.588Z,984.78
2017-01-13T03:36:44.219Z,984.89
2017-01-13T03:37:24.782Z,984.78
2017-01-13T03:38:05.359Z,984.84
2017-01-13T03:38:45.805Z,984.81
2017-01-13T03:39:26.320Z,984.71
2017-01-13T03:40:06.878Z,984.98
2017-01-13T03:40:47.444Z,984.89
2017-01-13T03:41:27.838Z,984.88
2017-01-13T03:42:08.420Z,984.92
2017-01-13T03:42:48.862Z,984.96
2017-01-13T03:43:29.362Z,985.03
2017-01-13T03:44:09.808Z,985.03
2017-01-13T03:44:50.281Z,985.11
2017-01-13T03:45:30.818Z,985.06
2017-01-13T03:46:11.291Z,985.01
2017-01-13T03:46:51.751Z,985.26
2017-01-13T03:47:32.272Z,985.05
2017-01-13T03:48:12.718Z,985.16
2017-01-13T03:48:53.225Z,985.06
2017-01-13T03:49:33.745Z,984.98
2017-01-13T03:50:14.246Z,985.09
2017-01-13T03:50:54.863Z,985.43
2017-01-13T03:51:35.293Z,985.01
2017-01-13T03:52:15.813Z,985.26
2017-01-13T03:52:56.269Z,985.5
2017-01-13T03:53:36.739Z,985.42
2017-01-13T03:54:17.251Z,985.42
2017-01-13T03:54:57.717Z,985.23
2017-01-13T03:55:38.187Z,985.28
2017-01-13T03:56:18.728Z,985.47
2017-01-13T03:56:59.203Z,985.47
2017-01-13T03:57:39.710Z,985.56
2017-01-13T03:58:20.187Z,985.57
2017-01-13T03:59:00.638Z,985.58
2017-01-13T03:59:41.184Z,985.59
2017-01-13T04:00:21.566Z,985.59
2017-01-13T04:01:02.102Z,985.5
2017-01-13T04:01:42.558Z,985.52
2017-01-13T04:02:23.040Z,985.65
2017-01-13T04:03:03.485Z,985.75
2017-01-13T04:03:44.069Z,985.67
2017-01-13T04:04:24.465Z,985.59
2017-01-13T04:05:04.935Z,985.63
2017-01-13T04:05:45.443Z,985.66
2017-01-13T04:06:25.945Z,985.67
2017-01-13T04:07:06.412Z,985.54
2017-01-13T04:07:46.973Z,985.68
2017-01-13T04:08:27.456Z,985.82
2017-01-13T04:09:07.977Z,985.87
2017-01-13T04:09:48.371Z,985.86
2017-01-13T04:10:28.869Z,985.95
2017-01-13T04:11:09.404Z,985.88
2017-01-13T04:11:49.912Z,985.9
2017-01-13T04:12:30.355Z,986.12
2017-01-13T04:13:10.839Z,985.98
2017-01-13T04:13:51.320Z,985.86
2017-01-13T04:14:31.785Z,985.79
2017-01-13T04:15:12.297Z,986
2017-01-13T04:15:52.752Z,985.78
2017-01-13T04:16:33.264Z,986.09
2017-01-13T04:17:13.781Z,985.89
2017-01-13T04:17:54.273Z,985.83
2017-01-13T04:18:34.740Z,985.89
2017-01-13T04:19:15.238Z,986.04
2017-01-13T04:19:55.705Z,986.04
2017-01-13T04:20:36.249Z,986.1
2017-01-13T04:21:16.728Z,986.15
2017-01-13T04:21:57.205Z,986.28
2017-01-13T04:22:37.774Z,985.97
2017-01-13T04:23:18.243Z,986.26
2017-01-13T04:23:58.744Z,986.17
2017-01-13T04:24:39.269Z,986.33
2017-01-13T04:25:19.680Z,986.2
2017-01-13T04:27:33.139Z,986.19
2017-01-13T04:28:13.534Z,986.36
2017-01-13T04:28:54.050Z,986.37
2017-01-13T04:29:34.520Z,986.35
2017-01-13T04:30:15.023Z,986.37
2017-01-13T04:30:55.504Z,986.35
2017-01-13T04:31:35.955Z,986.56
2017-01-13T04:32:16.435Z,986.44
2017-01-13T04:32:56.979Z,986.47
2017-01-13T04:33:37.451Z,986.49
2017-01-13T04:34:17.984Z,986.54
2017-01-13T04:34:58.462Z,986.56
2017-01-13T04:35:39.006Z,986.56
2017-01-13T04:36:19.548Z,986.47
2017-01-13T04:37:00.030Z,986.42
2017-01-13T04:37:40.515Z,986.51
2017-01-13T04:38:20.962Z,986.6
2017-01-13T04:39:01.461Z,986.46
2017-01-13T04:39:41.952Z,986.51
2017-01-13T04:40:22.422Z,986.61
2017-01-13T04:41:02.913Z,986.54
2017-01-13T04:41:43.515Z,986.75
2017-01-13T04:42:24.053Z,986.63
2017-01-13T04:43:04.584Z,986.65
2017-01-13T04:43:45.023Z,986.69
2017-01-13T04:44:25.488Z,986.66
2017-01-13T04:45:06.073Z,986.76
2017-01-13T04:45:46.619Z,986.8
2017-01-13T04:46:27.061Z,986.73
2017-01-13T04:47:07.552Z,986.72
2017-01-13T04:47:48.064Z,986.78
2017-01-13T04:48:28.601Z,986.8
2017-01-13T04:49:09.024Z,986.76
2017-01-13T04:49:49.528Z,986.86
2017-01-13T04:50:30.049Z,986.89
2017-01-13T04:51:10.549Z,986.79
2017-01-13T04:51:51.023Z,986.95
2017-01-13T04:52:31.562Z,986.91
2017-01-13T04:53:12.008Z,986.9
2017-01-13T04:53:52.550Z,986.94
2017-01-13T04:54:33.057Z,987.04
2017-01-13T04:55:13.518Z,987.07
2017-01-13T04:55:53.968Z,986.89
2017-01-13T04:56:34.508Z,986.91
2017-01-13T04:57:14.941Z,987.05
2017-01-13T04:57:55.406Z,987.12
2017-01-13T04:58:35.919Z,987.03
2017-01-13T04:59:16.395Z,987.06
2017-01-13T04:59:56.908Z,987.12
2017-01-13T05:00:37.390Z,987.05
2017-01-13T05:01:17.866Z,987.12
2017-01-13T05:01:58.360Z,987.23
2017-01-13T05:02:38.872Z,987.08
2017-01-13T05:03:19.368Z,987.1
2017-01-13T05:03:59.962Z,987.27
2017-01-13T05:04:40.442Z,987.1
2017-01-13T05:05:20.954Z,987.15
2017-01-13T05:06:01.400Z,987.28
2017-01-13T05:06:41.946Z,987.21
2017-01-13T05:07:22.383Z,987.28
2017-01-13T05:08:02.870Z,987.18
2017-01-13T05:08:43.414Z,987.26
2017-01-13T05:09:24.237Z,987.33
2017-01-13T05:10:04.816Z,987.36
2017-01-13T05:10:45.219Z,987.28
2017-01-13T05:11:25.788Z,987.37
2017-01-13T05:12:06.235Z,987.28
2017-01-13T05:12:46.752Z,987.34
2017-01-13T05:13:27.215Z,987.38
2017-01-13T05:14:07.757Z,987.38
2017-01-13T05:14:48.261Z,987.4
2017-01-13T05:15:28.894Z,987.37
2017-01-13T05:16:09.306Z,987.41
2017-01-13T05:16:49.783Z,987.49
2017-01-13T05:17:30.279Z,987.3
2017-01-13T05:18:10.753Z,987.53
2017-01-13T05:18:51.235Z,987.33
2017-01-13T05:19:31.926Z,987.54
2017-01-13T05:20:12.560Z,987.64
2017-01-13T05:20:53.050Z,987.41
2017-01-13T05:21:33.548Z,987.55
2017-01-13T05:22:13.994Z,987.57
2017-01-13T05:22:54.448Z,987.49
2017-01-13T05:23:34.957Z,987.6
2017-01-13T05:24:15.450Z,987.57
2017-01-13T05:24:55.945Z,987.76
2017-01-13T05:25:36.418Z,987.58
2017-01-13T05:26:16.876Z,987.8
2017-01-13T05:26:57.341Z,987.65
2017-01-13T05:27:38.301Z,987.75
2017-01-13T05:28:18.720Z,987.81
2017-01-13T05:28:59.224Z,987.76
2017-01-13T05:29:39.676Z,987.83
2017-01-13T05:30:20.206Z,987.82
2017-01-13T05:31:00.758Z,987.88
2017-01-13T05:31:41.200Z,987.83
2017-01-13T05:32:21.797Z,987.85
2017-01-13T05:33:02.333Z,987.94
2017-01-13T05:33:42.925Z,987.84
2017-01-13T05:34:23.379Z,987.88
2017-01-13T05:35:03.791Z,987.97
2017-01-13T05:35:44.374Z,988.04
2017-01-13T05:36:24.835Z,987.81
2017-01-13T05:37:05.425Z,987.91
2017-01-13T05:37:45.760Z,987.75
2017-01-13T05:38:26.313Z,988.08
2017-01-13T05:39:06.778Z,987.99
2017-01-13T05:39:47.326Z,988.12
2017-01-13T05:40:27.781Z,987.97
2017-01-13T05:41:08.267Z,987.81
2017-01-13T05:41:48.909Z,987.94
2017-01-13T05:42:29.457Z,987.92
2017-01-13T05:43:09.970Z,988.06
2017-01-13T05:43:50.539Z,988.05
2017-01-13T05:44:30.966Z,988.05
2017-01-13T05:45:11.412Z,988.13
2017-01-13T05:45:52.183Z,988.1
2017-01-13T05:46:32.591Z,988.2
2017-01-13T05:47:13.078Z,988.17
2017-01-13T05:47:53.624Z,988.28
2017-01-13T05:48:34.067Z,988.13
2017-01-13T05:49:14.539Z,988.15
2017-01-13T05:49:55.031Z,988.12
2017-01-13T05:50:35.633Z,988.24
2017-01-13T05:51:16.030Z,988.27
2017-01-13T05:51:56.577Z,988.2
2017-01-13T05:52:37.080Z,988.28
2017-01-13T05:53:17.653Z,988.29
2017-01-13T05:53:58.179Z,988.37
2017-01-13T05:54:38.670Z,988.27
2017-01-13T05:55:19.214Z,988.28
2017-01-13T05:55:59.649Z,988.35
2017-01-13T05:56:40.188Z,988.34
2017-01-13T05:57:20.681Z,988.27
2017-01-13T05:58:01.163Z,988.43
2017-01-13T05:58:41.672Z,988.46
2017-01-13T05:59:22.178Z,988.45
2017-01-13T06:00:02.696Z,988.54
2017-01-13T06:00:43.381Z,988.46
2017-01-13T06:01:23.765Z,988.46
2017-01-13T06:02:04.438Z,988.51
2017-01-13T06:02:45.941Z,988.41
2017-01-13T06:03:26.638Z,988.61
2017-01-13T06:04:10.699Z,988.45
2017-01-13T06:04:50.846Z,988.6
2017-01-13T06:05:31.837Z,988.45
2017-01-13T06:06:12.606Z,988.49
2017-01-13T06:06:53.216Z,988.59
2017-01-13T06:07:33.868Z,988.59
2017-01-13T06:09:54.096Z,988.59
2017-01-13T06:10:35.987Z,988.72
2017-01-13T06:11:16.449Z,988.67
2017-01-13T06:13:48.664Z,988.75
2017-01-13T06:14:37.816Z,988.75
2017-01-13T06:15:24.901Z,988.84
2017-01-13T06:16:09.097Z,988.79
2017-01-13T06:16:49.768Z,988.84
2017-01-13T06:17:30.394Z,988.9
2017-01-13T06:18:10.895Z,988.94
2017-01-13T06:18:51.837Z,988.93
2017-01-13T06:19:32.414Z,988.84
2017-01-13T06:20:14.536Z,988.81
2017-01-13T06:20:54.562Z,988.96
2017-01-13T06:21:39.124Z,988.89
2017-01-13T06:22:19.487Z,988.94
2017-01-13T06:23:00.525Z,988.88
2017-01-13T06:23:40.925Z,989.03
2017-01-13T06:24:21.656Z,988.95
2017-01-13T06:25:02.067Z,988.97
2017-01-13T06:25:42.424Z,989.06
2017-01-13T06:26:22.925Z,989.03
2017-01-13T06:27:03.417Z,989
2017-01-13T06:27:44.227Z,989.05
2017-01-13T06:28:24.795Z,989.06
2017-01-13T06:29:05.328Z,989.14
2017-01-13T06:29:46.085Z,989.06
2017-01-13T06:30:26.936Z,989.2
2017-01-13T06:31:07.408Z,989.11
2017-01-13T06:31:47.867Z,989.15
2017-01-13T06:32:28.367Z,989.16
2017-01-13T06:33:09.092Z,989.23
2017-01-13T06:33:49.884Z,989.25
2017-01-13T06:34:30.484Z,989.16
2017-01-13T06:35:11.152Z,989.22
2017-01-13T06:35:52.516Z,989.26
2017-01-13T06:36:34.651Z,989.14
2017-01-13T06:39:52.714Z,989.3
2017-01-13T06:40:33.175Z,989.27
2017-01-13T06:41:14.328Z,989.29
2017-01-13T06:41:54.922Z,989.28
2017-01-13T06:42:35.521Z,989.16
2017-01-13T06:43:16.380Z,989.28
2017-01-13T06:43:57.550Z,989.27
2017-01-13T06:44:38.271Z,989.13
2017-01-13T06:45:18.966Z,989.22
2017-01-13T06:46:01.044Z,989.31
2017-01-13T06:46:42.469Z,989.27
2017-01-13T06:47:25.342Z,989.28
2017-01-13T06:48:05.156Z,989.18
2017-01-13T06:48:45.474Z,989.19
2017-01-13T06:49:27.055Z,989.33
2017-01-13T06:50:08.029Z,989.33
2017-01-13T06:50:48.756Z,989.28
2017-01-13T06:51:29.245Z,989.29
2017-01-13T06:52:09.707Z,989.25
2017-01-13T06:52:50.247Z,989.29
2017-01-13T06:53:30.876Z,989.28
2017-01-13T06:54:11.351Z,989.32
2017-01-13T06:54:52.012Z,989.44
2017-01-13T06:55:32.459Z,989.36
2017-01-13T06:56:13.038Z,989.36
2017-01-13T06:56:53.527Z,989.3
2017-01-13T06:57:34.245Z,989.45
2017-01-13T06:58:15.361Z,989.43
2017-01-13T06:58:56.050Z,989.39
2017-01-13T06:59:36.464Z,989.41
2017-01-13T07:00:16.979Z,989.34
2017-01-13T07:00:57.470Z,989.45
2017-01-13T07:02:55.174Z,989.44
2017-01-13T07:03:35.707Z,989.5
2017-01-13T07:04:16.213Z,989.4
2017-01-13T07:04:56.713Z,989.49
2017-01-13T07:05:37.242Z,989.52
2017-01-13T07:06:17.718Z,989.58
2017-01-13T07:06:58.229Z,989.58
2017-01-13T07:07:38.754Z,989.48
2017-01-13T07:08:19.283Z,989.56
2017-01-13T07:08:59.843Z,989.49
2017-01-13T07:09:40.395Z,989.56
2017-01-13T07:10:20.867Z,989.55
2017-01-13T07:11:01.368Z,989.58
2017-01-13T07:11:41.847Z,989.5
2017-01-13T07:12:22.344Z,989.65
2017-01-13T07:13:02.850Z,989.52
2017-01-13T07:13:43.367Z,989.59
2017-01-13T07:14:23.870Z,989.67
2017-01-13T07:15:04.386Z,989.53
2017-01-13T07:15:44.900Z,989.65
2017-01-13T07:16:25.456Z,989.7
2017-01-13T07:17:05.929Z,989.63
2017-01-13T07:17:46.416Z,989.74
2017-01-13T07:18:26.891Z,989.77
2017-01-13T07:19:07.396Z,989.82
2017-01-13T07:19:47.865Z,989.75
2017-01-13T07:20:28.376Z,989.74
2017-01-13T07:21:08.845Z,989.81
2017-01-13T07:21:49.340Z,989.82
2017-01-13T07:22:29.829Z,989.88
2017-01-13T07:23:10.401Z,989.77
2017-01-13T07:23:50.848Z,989.82
2017-01-13T07:24:31.353Z,989.88
2017-01-13T07:25:11.869Z,989.92
2017-01-13T07:25:52.362Z,989.86
2017-01-13T07:26:32.872Z,989.93
2017-01-13T07:27:13.372Z,989.91
2017-01-13T07:27:53.879Z,989.87
2017-01-13T07:28:34.381Z,989.87
2017-01-13T07:29:14.845Z,990
2017-01-13T07:29:55.354Z,989.97
2017-01-13T07:30:35.862Z,990.01
2017-01-13T07:31:16.371Z,989.84
2017-01-13T07:31:56.850Z,989.99
2017-01-13T07:32:37.333Z,990.06
2017-01-13T07:33:17.875Z,990
2017-01-13T07:33:58.379Z,990.06
2017-01-13T07:34:38.864Z,990.13
2017-01-13T07:35:19.364Z,990.12
2017-01-13T07:35:59.863Z,990.14
2017-01-13T07:38:18.211Z,990.18
2017-01-13T07:38:58.763Z,990.09
2017-01-13T07:39:39.243Z,990.1
2017-01-13T07:40:19.712Z,990.14
2017-01-13T07:41:00.236Z,990.18
2017-01-13T07:41:40.761Z,990.15
2017-01-13T07:42:21.221Z,990.2
2017-01-13T07:43:01.719Z,990.13
2017-01-13T07:43:42.484Z,990.19
2017-01-13T07:44:23.177Z,990.19
2017-01-13T07:45:03.686Z,990.23
2017-01-13T07:45:44.223Z,990.21
2017-01-13T07:46:24.779Z,990.19
2017-01-13T07:47:05.274Z,990.33
2017-01-13T07:47:45.777Z,990.21
2017-01-13T07:48:26.296Z,990.21
2017-01-13T07:49:06.744Z,990.28
2017-01-13T07:51:35.640Z,990.26
2017-01-13T07:52:16.869Z,990.38
2017-01-13T07:52:57.339Z,990.35
2017-01-13T07:53:37.818Z,990.36
2017-01-13T07:54:18.411Z,990.31
2017-01-13T07:54:58.983Z,990.32
2017-01-13T07:55:40.487Z,990.43
2017-01-13T07:56:21.008Z,990.35
2017-01-13T07:57:01.536Z,990.39
2017-01-13T07:57:41.981Z,990.45
2017-01-13T07:58:22.476Z,990.41
2017-01-13T07:59:02.991Z,990.44
2017-01-13T07:59:43.458Z,990.5
2017-01-13T08:00:23.935Z,990.46
2017-01-13T08:01:04.443Z,990.56
2017-01-13T08:01:44.942Z,990.56
2017-01-13T08:02:25.452Z,990.57
2017-01-13T08:03:06.015Z,990.59
2017-01-13T08:03:46.516Z,990.6
2017-01-13T08:04:27.010Z,990.66
2017-01-13T08:05:07.558Z,990.69
2017-01-13T08:05:48.031Z,990.59
2017-01-13T08:06:28.555Z,990.77
2017-01-13T08:07:09.046Z,990.79
2017-01-13T08:07:49.558Z,990.75
2017-01-13T08:08:30.106Z,990.71
2017-01-13T08:09:11.884Z,990.81
2017-01-13T08:09:52.413Z,990.81
2017-01-13T08:10:32.881Z,990.76
2017-01-13T08:11:13.396Z,990.71
2017-01-13T08:11:53.918Z,990.84
2017-01-13T08:12:34.409Z,990.8
2017-01-13T08:13:14.960Z,990.83
2017-01-13T08:13:55.411Z,990.86
2017-01-13T08:14:35.903Z,990.85
2017-01-13T08:15:16.431Z,990.84
2017-01-13T08:15:56.901Z,990.92
2017-01-13T08:16:37.655Z,990.84
2017-01-13T08:17:18.161Z,990.91
2017-01-13T08:17:58.665Z,990.94
2017-01-13T08:18:39.161Z,990.88
2017-01-13T08:19:19.645Z,990.89
2017-01-13T08:20:00.160Z,990.91
2017-01-13T08:20:40.682Z,990.89
2017-01-13T08:21:21.275Z,990.83
2017-01-13T08:22:01.783Z,990.89
2017-01-13T08:22:42.304Z,990.88
2017-01-13T08:23:23.764Z,990.82
2017-01-13T08:24:04.267Z,990.88
2017-01-13T08:24:44.812Z,990.86
2017-01-13T08:25:25.300Z,990.85
2017-01-13T08:26:05.879Z,990.81
2017-01-13T08:26:46.374Z,990.85
2017-01-13T08:27:26.855Z,990.85
2017-01-13T08:28:07.334Z,990.84
2017-01-13T08:28:47.830Z,990.91
2017-01-13T08:29:28.320Z,990.81
2017-01-13T08:30:08.794Z,990.88
2017-01-13T08:30:49.305Z,991.06
2017-01-13T08:31:29.797Z,990.87
2017-01-13T08:32:10.289Z,990.97
2017-01-13T08:32:50.835Z,990.92
2017-01-13T08:33:31.273Z,990.98
2017-01-13T08:34:13.125Z,990.95
2017-01-13T08:34:53.600Z,991.02
2017-01-13T08:35:34.126Z,991
2017-01-13T08:36:14.587Z,990.94
2017-01-13T08:36:55.114Z,991.05
2017-01-13T08:37:35.604Z,991.06
2017-01-13T08:38:16.085Z,990.93
2017-01-13T08:38:56.595Z,990.97
2017-01-13T08:39:37.070Z,990.98
2017-01-13T08:40:17.559Z,991
2017-01-13T08:40:58.071Z,990.98